createdAt,value
2024-02-12T00:00:00.862Z,78.51
2024-02-12T00:00:33.826Z,78.08
2024-02-12T00:01:05.954Z,78.69
2024-02-12T00:01:48.097Z,77.98
2024-02-12T00:02:21.026Z,78.18
2024-02-12T00:02:53.091Z,78.37
2024-02-12T00:03:25.947Z,78.81
2024-02-12T00:03:57.815Z,78.97
2024-02-12T00:04:30.470Z,79.02
2024-02-12T00:05:07.312Z,78.88
2024-02-12T00:05:39.539Z,79.04
2024-02-12T00:06:11.645Z,78.75
2024-02-12T00:06:44.476Z,78.35
2024-02-12T00:07:18.031Z,78.80
2024-02-12T00:07:49.972Z,78.71
2024-02-12T00:08:22.308Z,79.24
2024-02-12T00:08:54.335Z,79.32
2024-02-12T00:09:26.749Z,79.19
2024-02-12T00:09:58.692Z,79.27
2024-02-12T00:10:31.022Z,79.55
2024-02-12T00:11:03.834Z,78.86
2024-02-12T00:11:36.323Z,79.22
2024-02-12T00:12:09.396Z,79.27
2024-02-12T00:12:42.215Z,79.28
2024-02-12T00:13:14.081Z,79.91
2024-02-12T00:13:46.044Z,79.48
2024-02-12T00:14:22.524Z,79.42
2024-02-12T00:14:54.865Z,78.68
2024-02-12T00:15:28.217Z,78.81
2024-02-12T00:16:00.148Z,78.99
2024-02-12T00:16:32.071Z,79.19
2024-02-12T00:17:06.163Z,79.10
2024-02-12T00:17:39.107Z,79.46
2024-02-12T00:18:11.615Z,79.25
2024-02-12T00:18:46.555Z,79.37
2024-02-12T00:19:18.947Z,79.03
2024-02-12T00:19:51.273Z,78.97
2024-02-12T00:20:23.254Z,78.85
2024-02-12T00:20:55.135Z,79.09
2024-02-12T00:21:28.919Z,79.29
2024-02-12T00:22:01.383Z,79.24
2024-02-12T00:22:36.125Z,79.07
2024-02-12T00:23:08.198Z,78.92
2024-02-12T00:23:40.201Z,78.39
2024-02-12T00:24:12.148Z,79.19
2024-02-12T00:24:44.026Z,79.79
2024-02-12T00:25:17.345Z,79.99
2024-02-12T00:25:49.837Z,78.71
2024-02-12T00:26:26.015Z,79.02
2024-02-12T00:27:04.447Z,78.90
2024-02-12T00:27:36.788Z,79.27
2024-02-12T00:28:09.098Z,79.08
2024-02-12T00:28:40.986Z,79.08
2024-02-12T00:29:14.558Z,79.04
2024-02-12T00:29:48.118Z,79.11
2024-02-12T00:30:20.530Z,79.75
2024-02-12T00:30:52.382Z,79.66
2024-02-12T00:31:24.317Z,79.31
2024-02-12T00:31:59.638Z,79.13
2024-02-12T00:32:32.287Z,79.37
2024-02-12T00:33:10.662Z,79.29
2024-02-12T00:33:42.964Z,79.22
2024-02-12T00:34:15.085Z,79.61
2024-02-12T00:34:47.041Z,79.35
2024-02-12T00:35:18.973Z,79.97
2024-02-12T00:35:50.881Z,79.46
2024-02-12T00:36:22.778Z,79.68
2024-02-12T00:36:54.620Z,79.36
2024-02-12T00:37:26.534Z,79.76
2024-02-12T00:37:58.685Z,80.20
2024-02-12T00:38:30.736Z,80.54
2024-02-12T00:39:05.983Z,80.93
2024-02-12T00:39:38.768Z,80.08
2024-02-12T00:40:13.296Z,81.36
2024-02-12T00:40:46.018Z,80.77
2024-02-12T00:41:22.036Z,80.68
2024-02-12T00:41:54.292Z,80.59
2024-02-12T00:42:26.115Z,81.10
2024-02-12T00:42:58.992Z,80.49
2024-02-12T00:43:30.966Z,80.80
2024-02-12T00:44:05.206Z,79.98
2024-02-12T00:44:38.602Z,79.70
2024-02-12T00:45:12.101Z,80.15
2024-02-12T00:45:44.382Z,80.64
2024-02-12T00:46:19.770Z,79.86
2024-02-12T00:46:55.638Z,80.60
2024-02-12T00:47:27.854Z,80.79
2024-02-12T00:47:59.928Z,79.99
2024-02-12T00:48:33.035Z,80.10
2024-02-12T00:49:05.110Z,79.90
2024-02-12T00:49:36.953Z,80.25
2024-02-12T00:50:09.559Z,80.24
2024-02-12T00:50:41.620Z,79.81
2024-02-12T00:51:14.109Z,79.97
2024-02-12T00:51:46.092Z,80.32
2024-02-12T00:52:19.337Z,79.74
2024-02-12T00:52:51.185Z,78.94
2024-02-12T00:53:23.176Z,78.68
2024-02-12T00:53:56.524Z,78.49
2024-02-12T00:54:31.146Z,79.09
2024-02-12T00:55:04.202Z,78.71
2024-02-12T00:55:36.045Z,78.96
2024-02-12T00:56:08.031Z,79.47
2024-02-12T00:56:44.468Z,79.47
2024-02-12T00:57:16.346Z,79.59
2024-02-12T00:57:48.273Z,79.18
2024-02-12T00:58:20.199Z,79.26
2024-02-12T00:58:52.180Z,79.19
2024-02-12T00:59:25.254Z,78.95
2024-02-12T00:59:58.385Z,79.81
2024-02-12T01:00:30.357Z,79.48
2024-02-12T01:01:05.173Z,78.32
2024-02-12T01:01:37.142Z,78.99
2024-02-12T01:02:12.822Z,79.42
2024-02-12T01:02:46.857Z,79.33
2024-02-12T01:03:18.818Z,79.12
2024-02-12T01:03:51.499Z,78.70
2024-02-12T01:04:23.643Z,78.75
2024-02-12T01:04:57.951Z,78.72
2024-02-12T01:05:30.652Z,78.60
2024-02-12T01:06:02.695Z,79.10
2024-02-12T01:06:35.138Z,78.87
2024-02-12T01:07:07.002Z,79.00
2024-02-12T01:07:40.517Z,79.23
2024-02-12T01:08:12.369Z,79.25
2024-02-12T01:08:45.480Z,78.65
2024-02-12T01:09:18.230Z,79.37
2024-02-12T01:09:50.705Z,78.69
2024-02-12T01:10:23.200Z,78.81
2024-02-12T01:10:55.315Z,78.82
2024-02-12T01:11:29.548Z,78.11
2024-02-12T01:12:01.613Z,78.38
2024-02-12T01:12:33.439Z,78.23
2024-02-12T01:13:05.427Z,79.12
2024-02-12T01:13:37.462Z,78.94
2024-02-12T01:14:09.535Z,78.83
2024-02-12T01:14:41.391Z,78.42
2024-02-12T01:15:13.792Z,78.71
2024-02-12T01:15:50.359Z,78.30
2024-02-12T01:16:22.966Z,78.14
2024-02-12T01:16:56.698Z,78.51
2024-02-12T01:17:33.054Z,77.97
2024-02-12T01:18:10.975Z,77.76
2024-02-12T01:18:43.831Z,77.58
2024-02-12T01:19:15.931Z,77.18
2024-02-12T01:19:48.515Z,77.87
2024-02-12T01:20:20.580Z,78.05
2024-02-12T01:20:53.661Z,78.39
2024-02-12T01:21:26.739Z,77.90
2024-02-12T01:22:00.343Z,78.35
2024-02-12T01:22:32.252Z,77.80
2024-02-12T01:23:04.542Z,77.79
2024-02-12T01:23:36.634Z,77.63
2024-02-12T01:24:08.564Z,77.73
2024-02-12T01:24:40.466Z,77.64
2024-02-12T01:25:13.205Z,77.96
2024-02-12T01:25:45.697Z,77.67
2024-02-12T01:26:17.657Z,77.81
2024-02-12T01:26:49.593Z,77.64
2024-02-12T01:27:21.422Z,77.69
2024-02-12T01:27:54.710Z,77.08
2024-02-12T01:28:26.802Z,76.92
2024-02-12T01:28:58.687Z,77.20
2024-02-12T01:29:30.957Z,77.54
2024-02-12T01:30:04.586Z,78.04
2024-02-12T01:30:37.599Z,77.68
2024-02-12T01:31:19.133Z,77.92
2024-02-12T01:31:53.607Z,78.01
2024-02-12T01:32:27.059Z,78.25
2024-02-12T01:32:59.157Z,78.18
2024-02-12T01:33:31.775Z,77.91
2024-02-12T01:34:05.875Z,77.73
2024-02-12T01:34:38.701Z,77.66
2024-02-12T01:35:12.535Z,77.42
2024-02-12T01:35:44.612Z,77.89
2024-02-12T01:36:17.899Z,77.92
2024-02-12T01:36:49.977Z,77.99
2024-02-12T01:37:23.930Z,77.56
2024-02-12T01:37:56.148Z,77.20
2024-02-12T01:38:28.102Z,77.62
2024-02-12T01:38:59.988Z,76.77
2024-02-12T01:39:31.848Z,76.78
2024-02-12T01:40:04.093Z,77.03
2024-02-12T01:40:36.155Z,78.30
2024-02-12T01:41:08.160Z,77.75
2024-02-12T01:41:40.097Z,77.70
2024-02-12T01:42:15.104Z,77.94
2024-02-12T01:42:46.997Z,77.81
2024-02-12T01:43:28.121Z,77.27
2024-02-12T01:43:59.999Z,77.35
2024-02-12T01:44:31.942Z,77.89
2024-02-12T01:45:13.789Z,77.45
2024-02-12T01:45:46.875Z,78.19
2024-02-12T01:46:20.988Z,78.01
2024-02-12T01:46:52.938Z,77.71
2024-02-12T01:47:25.741Z,77.64
2024-02-12T01:48:04.363Z,77.62
2024-02-12T01:48:38.019Z,77.58
2024-02-12T01:49:11.680Z,77.50
2024-02-12T01:49:44.867Z,77.40
2024-02-12T01:50:17.445Z,77.31
2024-02-12T01:50:49.875Z,77.64
2024-02-12T01:51:21.868Z,77.05
2024-02-12T01:51:55.481Z,77.18
2024-02-12T01:52:31.199Z,77.09
2024-02-12T01:53:03.618Z,77.61
2024-02-12T01:53:40.216Z,77.53
2024-02-12T01:54:15.382Z,78.02
2024-02-12T01:54:50.805Z,77.66
2024-02-12T01:55:24.545Z,77.66
2024-02-12T01:55:56.560Z,77.62
2024-02-12T01:56:31.071Z,77.54
2024-02-12T01:57:04.193Z,77.67
2024-02-12T01:57:36.032Z,77.22
2024-02-12T01:58:08.825Z,77.08
2024-02-12T01:58:42.226Z,76.66
2024-02-12T01:59:20.124Z,76.90
2024-02-12T01:59:52.483Z,77.18
2024-02-12T02:00:26.850Z,77.02
2024-02-12T02:00:59.300Z,77.37
2024-02-12T02:01:31.294Z,77.82
2024-02-12T02:02:03.206Z,78.27
2024-02-12T02:02:35.145Z,77.32
2024-02-12T02:03:07.065Z,76.96
2024-02-12T02:03:40.434Z,77.08
2024-02-12T02:04:13.299Z,78.04
2024-02-12T02:04:45.649Z,77.78
2024-02-12T02:05:17.667Z,77.23
2024-02-12T02:05:49.663Z,77.79
2024-02-12T02:06:21.701Z,77.23
2024-02-12T02:06:56.462Z,77.55
2024-02-12T02:07:28.963Z,77.72
2024-02-12T02:08:01.921Z,77.53
2024-02-12T02:08:38.391Z,77.52
2024-02-12T02:09:10.597Z,77.79
2024-02-12T02:09:44.119Z,77.92
2024-02-12T02:10:16.520Z,77.31
2024-02-12T02:10:49.921Z,78.04
2024-02-12T02:11:22.294Z,77.56
2024-02-12T02:11:54.214Z,77.65
2024-02-12T02:12:28.522Z,77.76
2024-02-12T02:13:01.128Z,78.04
2024-02-12T02:13:43.769Z,78.23
2024-02-12T02:14:15.842Z,78.09
2024-02-12T02:14:47.819Z,77.53
2024-02-12T02:15:20.750Z,77.30
2024-02-12T02:15:52.586Z,77.52
2024-02-12T02:16:24.435Z,78.34
2024-02-12T02:16:57.076Z,77.94
2024-02-12T02:17:29.352Z,77.99
2024-02-12T02:18:05.669Z,78.24
2024-02-12T02:18:38.164Z,78.54
2024-02-12T02:19:11.294Z,78.39
2024-02-12T02:19:43.707Z,78.00
2024-02-12T02:20:16.490Z,77.91
2024-02-12T02:20:48.523Z,78.10
2024-02-12T02:21:23.909Z,78.01
2024-02-12T02:21:55.783Z,77.61
2024-02-12T02:22:30.327Z,77.59
2024-02-12T02:23:03.985Z,77.62
2024-02-12T02:23:36.658Z,77.67
2024-02-12T02:24:08.730Z,77.23
2024-02-12T02:24:40.599Z,78.27
2024-02-12T02:25:12.916Z,77.90
2024-02-12T02:25:44.886Z,78.02
2024-02-12T02:26:16.757Z,77.92
2024-02-12T02:26:48.621Z,78.72
2024-02-12T02:27:21.436Z,77.90
2024-02-12T02:27:53.269Z,77.88
2024-02-12T02:28:26.061Z,77.95
2024-02-12T02:28:59.717Z,77.88
2024-02-12T02:29:31.648Z,78.49
2024-02-12T02:30:09.076Z,78.22
2024-02-12T02:30:43.266Z,78.43
2024-02-12T02:31:15.178Z,78.25
2024-02-12T02:31:47.712Z,78.28
2024-02-12T02:32:19.535Z,78.36
2024-02-12T02:32:51.597Z,78.28
2024-02-12T02:33:23.775Z,77.94
2024-02-12T02:33:55.848Z,78.79
2024-02-12T02:34:27.727Z,78.71
2024-02-12T02:34:59.686Z,79.01
2024-02-12T02:35:31.781Z,78.54
2024-02-12T02:36:03.937Z,78.25
2024-02-12T02:36:36.343Z,78.05
2024-02-12T02:37:08.450Z,79.09
2024-02-12T02:37:40.281Z,78.46
2024-02-12T02:38:15.802Z,78.64
2024-02-12T02:38:47.818Z,78.69
2024-02-12T02:39:19.822Z,78.74
2024-02-12T02:39:51.851Z,78.04
2024-02-12T02:40:23.718Z,78.02
2024-02-12T02:40:55.938Z,77.62
2024-02-12T02:41:27.975Z,78.50
2024-02-12T02:42:01.354Z,78.87
2024-02-12T02:42:33.262Z,78.05
2024-02-12T02:43:05.100Z,78.25
2024-02-12T02:43:38.559Z,77.91
2024-02-12T02:44:10.501Z,77.62
2024-02-12T02:44:45.422Z,78.17
2024-02-12T02:45:17.415Z,78.15
2024-02-12T02:45:49.379Z,77.86
2024-02-12T02:46:30.448Z,78.69
2024-02-12T02:47:03.960Z,78.34
2024-02-12T02:47:38.482Z,78.29
2024-02-12T02:48:10.771Z,78.02
2024-02-12T02:48:42.873Z,77.68
2024-02-12T02:49:15.885Z,78.03
2024-02-12T02:49:48.549Z,78.27
2024-02-12T02:50:20.647Z,79.13
2024-02-12T02:50:54.091Z,78.38
2024-02-12T02:51:29.492Z,78.61
2024-02-12T02:52:01.387Z,78.35
2024-02-12T02:52:35.369Z,79.08
2024-02-12T02:53:10.151Z,78.95
2024-02-12T02:53:42.316Z,78.87
2024-02-12T02:54:15.209Z,79.17
2024-02-12T02:54:48.367Z,79.03
2024-02-12T02:55:20.509Z,78.87
2024-02-12T02:55:52.546Z,78.54
2024-02-12T02:56:24.850Z,78.89
2024-02-12T02:56:58.473Z,78.74
2024-02-12T02:57:30.384Z,78.41
2024-02-12T02:58:07.088Z,78.22
2024-02-12T02:58:38.922Z,78.40
2024-02-12T02:59:11.053Z,78.49
2024-02-12T02:59:43.441Z,78.87
2024-02-12T03:00:16.714Z,78.78
2024-02-12T03:00:48.706Z,78.20
2024-02-12T03:01:21.026Z,78.30
2024-02-12T03:01:53.193Z,77.75
2024-02-12T03:02:25.266Z,79.13
2024-02-12T03:02:57.999Z,78.44
2024-02-12T03:03:30.451Z,79.31
2024-02-12T03:04:03.232Z,78.33
2024-02-12T03:04:36.783Z,78.05
2024-02-12T03:05:10.282Z,78.33
2024-02-12T03:05:42.486Z,78.50
2024-02-12T03:06:14.861Z,78.43
2024-02-12T03:06:46.928Z,78.79
2024-02-12T03:07:18.845Z,78.85
2024-02-12T03:07:50.920Z,78.27
2024-02-12T03:08:22.817Z,78.98
2024-02-12T03:08:55.485Z,78.49
2024-02-12T03:09:27.378Z,77.99
2024-02-12T03:09:59.240Z,78.30
2024-02-12T03:10:31.624Z,78.10
2024-02-12T03:11:05.736Z,77.95
2024-02-12T03:11:41.425Z,77.82
2024-02-12T03:12:14.099Z,78.13
2024-02-12T03:12:46.872Z,78.57
2024-02-12T03:13:18.735Z,79.08
2024-02-12T03:13:51.949Z,78.35
2024-02-12T03:14:24.034Z,78.14
2024-02-12T03:14:56.004Z,78.79
2024-02-12T03:15:27.980Z,78.43
2024-02-12T03:15:59.800Z,78.74
2024-02-12T03:16:33.834Z,78.76
2024-02-12T03:17:05.870Z,78.14
2024-02-12T03:17:40.631Z,77.77
2024-02-12T03:18:12.705Z,77.62
2024-02-12T03:18:47.664Z,78.00
2024-02-12T03:19:19.740Z,78.58
2024-02-12T03:19:51.678Z,78.85
2024-02-12T03:20:26.011Z,78.55
2024-02-12T03:20:57.994Z,78.46
2024-02-12T03:21:29.874Z,78.31
2024-02-12T03:22:01.738Z,78.01
2024-02-12T03:22:34.611Z,77.56
2024-02-12T03:23:06.514Z,77.67
2024-02-12T03:23:38.558Z,78.03
2024-02-12T03:24:10.456Z,78.93
2024-02-12T03:24:42.301Z,78.32
2024-02-12T03:25:14.252Z,78.76
2024-02-12T03:25:46.116Z,78.54
2024-02-12T03:26:18.226Z,78.36
2024-02-12T03:26:52.166Z,78.14
2024-02-12T03:27:24.825Z,78.13
2024-02-12T03:27:56.740Z,78.14
2024-02-12T03:28:28.545Z,78.08
2024-02-12T03:29:01.358Z,78.42
2024-02-12T03:29:34.039Z,79.20
2024-02-12T03:30:08.418Z,78.55
2024-02-12T03:30:40.611Z,78.33
2024-02-12T03:31:12.783Z,78.25
2024-02-12T03:31:44.657Z,78.34
2024-02-12T03:32:16.595Z,78.22
2024-02-12T03:32:48.543Z,78.24
2024-02-12T03:33:20.488Z,78.01
2024-02-12T03:33:54.365Z,78.30
2024-02-12T03:34:30.674Z,77.97
2024-02-12T03:35:02.794Z,77.09
2024-02-12T03:35:34.736Z,77.84
2024-02-12T03:36:06.577Z,78.70
2024-02-12T03:36:44.293Z,78.34
2024-02-12T03:37:20.201Z,77.77
2024-02-12T03:37:52.033Z,77.82
2024-02-12T03:38:26.976Z,78.12
2024-02-12T03:38:59.974Z,78.03
2024-02-12T03:39:31.863Z,78.21
2024-02-12T03:40:04.724Z,77.65
2024-02-12T03:40:36.568Z,77.66
2024-02-12T03:41:08.715Z,77.78
2024-02-12T03:41:40.668Z,78.26
2024-02-12T03:42:12.841Z,78.19
2024-02-12T03:42:44.802Z,77.44
2024-02-12T03:43:16.912Z,77.90
2024-02-12T03:43:48.751Z,77.98
2024-02-12T03:44:20.587Z,77.97
2024-02-12T03:44:52.559Z,77.92
2024-02-12T03:45:25.481Z,78.14
2024-02-12T03:45:57.461Z,78.27
2024-02-12T03:46:40.103Z,77.98
2024-02-12T03:47:12.073Z,78.97
2024-02-12T03:47:46.069Z,79.71
2024-02-12T03:48:36.848Z,78.73
2024-02-12T03:49:27.588Z,78.86
2024-02-12T03:50:18.033Z,79.09
2024-02-12T03:51:08.217Z,78.90
2024-02-12T03:51:58.127Z,78.22
2024-02-12T03:52:48.508Z,78.23
2024-02-12T03:53:40.758Z,78.05
2024-02-12T03:54:31.433Z,77.78
2024-02-12T03:55:22.086Z,77.57
2024-02-12T03:56:12.586Z,78.16
2024-02-12T03:57:03.340Z,77.90
2024-02-12T03:57:57.661Z,77.74
2024-02-12T03:58:48.239Z,78.05
2024-02-12T03:59:38.755Z,78.52
2024-02-12T04:00:12.466Z,78.06
2024-02-12T04:00:44.331Z,78.68
2024-02-12T04:01:16.244Z,78.05
2024-02-12T04:01:48.055Z,78.18
2024-02-12T04:02:20.668Z,77.98
2024-02-12T04:02:53.016Z,78.05
2024-02-12T04:03:24.936Z,77.42
2024-02-12T04:03:56.986Z,77.64
2024-02-12T04:04:30.058Z,78.27
2024-02-12T04:05:03.508Z,77.74
2024-02-12T04:05:36.500Z,78.39
2024-02-12T04:06:13.580Z,78.55
2024-02-12T04:06:46.119Z,78.38
2024-02-12T04:07:19.655Z,77.72
2024-02-12T04:07:51.541Z,77.75
2024-02-12T04:08:23.559Z,78.49
2024-02-12T04:08:55.407Z,78.29
2024-02-12T04:09:27.864Z,77.69
2024-02-12T04:10:00.649Z,78.28
2024-02-12T04:10:33.045Z,78.31
2024-02-12T04:11:06.316Z,77.75
2024-02-12T04:11:41.598Z,78.62
2024-02-12T04:12:13.547Z,77.83
2024-02-12T04:12:46.902Z,77.54
2024-02-12T04:13:20.541Z,77.48
2024-02-12T04:13:55.871Z,77.82
2024-02-12T04:14:29.040Z,77.47
2024-02-12T04:15:04.720Z,77.72
2024-02-12T04:15:40.112Z,77.46
2024-02-12T04:16:13.708Z,77.29
2024-02-12T04:16:53.131Z,77.39
2024-02-12T04:17:26.494Z,77.25
2024-02-12T04:17:58.755Z,77.63
2024-02-12T04:18:31.720Z,77.64
2024-02-12T04:19:11.784Z,76.84
2024-02-12T04:19:44.365Z,77.21
2024-02-12T04:20:19.625Z,77.62
2024-02-12T04:20:52.540Z,77.27
2024-02-12T04:21:25.960Z,77.75
2024-02-12T04:21:57.821Z,77.54
2024-02-12T04:22:30.172Z,77.46
2024-02-12T04:23:02.562Z,77.47
2024-02-12T04:23:34.446Z,77.74
2024-02-12T04:24:06.554Z,78.11
2024-02-12T04:24:42.276Z,78.07
2024-02-12T04:25:14.206Z,77.81
2024-02-12T04:25:46.709Z,77.69
2024-02-12T04:26:19.469Z,77.76
2024-02-12T04:26:51.704Z,77.27
2024-02-12T04:27:23.901Z,76.85
2024-02-12T04:28:02.203Z,77.19
2024-02-12T04:28:34.478Z,77.29
2024-02-12T04:29:06.951Z,77.78
2024-02-12T04:29:40.288Z,76.80
2024-02-12T04:30:12.355Z,77.84
2024-02-12T04:30:44.267Z,77.33
2024-02-12T04:31:16.250Z,76.66
2024-02-12T04:31:51.327Z,76.90
2024-02-12T04:32:23.247Z,78.10
2024-02-12T04:32:59.027Z,77.01
2024-02-12T04:33:34.039Z,77.75
2024-02-12T04:34:09.110Z,78.02
2024-02-12T04:34:42.204Z,77.92
2024-02-12T04:35:15.452Z,77.87
2024-02-12T04:35:47.429Z,77.52
2024-02-12T04:36:19.379Z,78.32
2024-02-12T04:36:56.443Z,77.68
2024-02-12T04:37:29.208Z,76.88
2024-02-12T04:38:01.254Z,77.34
2024-02-12T04:38:34.895Z,77.86
2024-02-12T04:39:07.033Z,78.02
2024-02-12T04:39:39.451Z,77.83
2024-02-12T04:40:11.447Z,78.34
2024-02-12T04:40:43.728Z,77.99
2024-02-12T04:41:15.893Z,77.60
2024-02-12T04:41:48.032Z,77.50
2024-02-12T04:42:22.297Z,78.00
2024-02-12T04:42:54.794Z,77.93
2024-02-12T04:43:26.632Z,77.75
2024-02-12T04:43:59.115Z,77.64
2024-02-12T04:44:31.370Z,77.90
2024-02-12T04:45:03.414Z,77.33
2024-02-12T04:45:35.503Z,78.02
2024-02-12T04:46:09.334Z,78.08
2024-02-12T04:46:42.866Z,77.95
2024-02-12T04:47:15.025Z,77.83
2024-02-12T04:47:47.425Z,77.86
2024-02-12T04:48:19.685Z,77.42
2024-02-12T04:48:52.464Z,77.99
2024-02-12T04:49:24.849Z,77.54
2024-02-12T04:49:56.889Z,77.67
2024-02-12T04:50:28.809Z,77.73
2024-02-12T04:51:00.809Z,78.13
2024-02-12T04:51:33.438Z,78.16
2024-02-12T04:52:07.173Z,78.39
2024-02-12T04:52:39.387Z,77.58
2024-02-12T04:53:11.427Z,77.93
2024-02-12T04:53:43.595Z,78.30
2024-02-12T04:54:18.082Z,78.33
2024-02-12T04:54:49.927Z,78.79
2024-02-12T04:55:22.064Z,79.03
2024-02-12T04:55:54.230Z,78.35
2024-02-12T04:56:26.354Z,78.38
2024-02-12T04:56:58.434Z,78.35
2024-02-12T04:57:30.239Z,78.25
2024-02-12T04:58:02.288Z,78.14
2024-02-12T04:58:36.937Z,78.12
2024-02-12T04:59:13.622Z,78.61
2024-02-12T04:59:45.620Z,78.56
2024-02-12T05:00:17.730Z,78.53
2024-02-12T05:00:49.716Z,78.41
2024-02-12T05:01:21.570Z,78.39
2024-02-12T05:01:56.140Z,78.75
2024-02-12T05:02:28.839Z,77.73
2024-02-12T05:03:01.032Z,78.33
2024-02-12T05:03:34.850Z,77.94
2024-02-12T05:04:06.902Z,78.54
2024-02-12T05:04:39.023Z,78.35
2024-02-12T05:05:12.893Z,78.86
2024-02-12T05:05:44.954Z,78.31
2024-02-12T05:06:20.083Z,78.57
2024-02-12T05:06:52.165Z,79.77
2024-02-12T05:07:27.489Z,79.08
2024-02-12T05:08:03.783Z,78.61
2024-02-12T05:08:36.247Z,79.36
2024-02-12T05:09:12.109Z,79.26
2024-02-12T05:09:44.772Z,79.46
2024-02-12T05:10:16.937Z,79.11
2024-02-12T05:10:50.953Z,79.18
2024-02-12T05:11:27.086Z,79.29
2024-02-12T05:11:59.048Z,79.24
2024-02-12T05:12:30.982Z,78.69
2024-02-12T05:13:02.829Z,78.92
2024-02-12T05:13:35.191Z,79.47
2024-02-12T05:14:07.474Z,79.67
2024-02-12T05:14:39.428Z,79.33
2024-02-12T05:15:11.299Z,78.94
2024-02-12T05:15:43.194Z,79.25
2024-02-12T05:16:15.708Z,78.68
2024-02-12T05:16:48.669Z,78.81
2024-02-12T05:17:29.674Z,78.52
2024-02-12T05:18:20.373Z,79.46
2024-02-12T05:19:14.101Z,79.25
2024-02-12T05:20:04.856Z,79.65
2024-02-12T05:20:58.101Z,80.12
2024-02-12T05:21:48.288Z,80.19
2024-02-12T05:22:35.671Z,80.71
2024-02-12T05:23:11.087Z,80.86
2024-02-12T05:23:43.003Z,80.66
2024-02-12T05:24:14.932Z,80.84
2024-02-12T05:24:49.273Z,80.61
2024-02-12T05:25:21.164Z,79.90
2024-02-12T05:25:53.065Z,80.77
2024-02-12T05:26:24.964Z,80.39
2024-02-12T05:26:57.846Z,80.30
2024-02-12T05:27:29.927Z,79.97
2024-02-12T05:28:01.829Z,80.13
2024-02-12T05:28:34.971Z,80.56
2024-02-12T05:29:08.324Z,80.48
2024-02-12T05:29:41.888Z,80.00
2024-02-12T05:30:15.168Z,80.34
2024-02-12T05:30:47.519Z,80.67
2024-02-12T05:31:19.356Z,80.76
2024-02-12T05:31:54.144Z,80.76
2024-02-12T05:32:26.072Z,80.21
2024-02-12T05:32:58.078Z,80.20
2024-02-12T05:33:32.993Z,80.07
2024-02-12T05:34:05.026Z,80.10
2024-02-12T05:34:38.325Z,80.41
2024-02-12T05:35:11.215Z,79.86
2024-02-12T05:35:43.676Z,79.42
2024-02-12T05:36:18.632Z,79.61
2024-02-12T05:36:57.067Z,79.80
2024-02-12T05:37:29.034Z,79.51
2024-02-12T05:38:00.974Z,79.44
2024-02-12T05:38:33.107Z,79.80
2024-02-12T05:39:05.025Z,79.88
2024-02-12T05:39:38.070Z,80.11
2024-02-12T05:40:10.295Z,80.32
2024-02-12T05:40:42.191Z,79.96
2024-02-12T05:41:14.755Z,79.58
2024-02-12T05:41:47.419Z,80.25
2024-02-12T05:42:19.328Z,80.21
2024-02-12T05:42:51.137Z,79.86
2024-02-12T05:43:22.979Z,80.16
2024-02-12T05:43:54.993Z,80.35
2024-02-12T05:44:27.042Z,79.52
2024-02-12T05:44:59.142Z,79.58
2024-02-12T05:45:32.022Z,79.89
2024-02-12T05:46:05.480Z,80.04
2024-02-12T05:46:38.060Z,79.87
2024-02-12T05:47:09.985Z,79.85
2024-02-12T05:47:42.434Z,79.79
2024-02-12T05:48:14.462Z,80.03
2024-02-12T05:48:46.417Z,79.78
2024-02-12T05:49:24.438Z,79.56
2024-02-12T05:49:56.452Z,79.32
2024-02-12T05:50:28.442Z,79.54
2024-02-12T05:51:00.349Z,80.21
2024-02-12T05:51:32.661Z,79.88
2024-02-12T05:52:05.075Z,79.96
2024-02-12T05:52:37.643Z,79.93
2024-02-12T05:53:09.713Z,80.29
2024-02-12T05:53:42.461Z,79.96
2024-02-12T05:54:14.281Z,79.94
2024-02-12T05:54:46.192Z,80.03
2024-02-12T05:55:18.069Z,79.94
2024-02-12T05:55:50.929Z,80.08
2024-02-12T05:56:22.871Z,80.29
2024-02-12T05:56:54.730Z,79.91
2024-02-12T05:57:26.590Z,80.07
2024-02-12T05:57:58.443Z,80.38
2024-02-12T05:58:30.282Z,80.02
2024-02-12T05:59:02.252Z,80.50
2024-02-12T05:59:35.309Z,79.96
2024-02-12T06:00:07.744Z,80.61
2024-02-12T06:00:39.706Z,80.52
2024-02-12T06:01:12.291Z,80.73
2024-02-12T06:01:44.270Z,80.18
2024-02-12T06:02:16.199Z,80.25
2024-02-12T06:02:48.045Z,80.29
2024-02-12T06:03:19.946Z,80.64
2024-02-12T06:03:51.845Z,80.06
2024-02-12T06:04:23.813Z,80.39
2024-02-12T06:04:55.826Z,80.42
2024-02-12T06:05:27.879Z,79.96
2024-02-12T06:06:00.196Z,79.98
2024-02-12T06:06:32.846Z,80.43
2024-02-12T06:07:05.796Z,80.17
2024-02-12T06:07:40.930Z,80.70
2024-02-12T06:08:13.582Z,80.42
2024-02-12T06:08:45.507Z,79.61
2024-02-12T06:09:18.663Z,80.16
2024-02-12T06:09:50.540Z,79.43
2024-02-12T06:10:22.478Z,79.53
2024-02-12T06:10:54.319Z,79.44
2024-02-12T06:11:26.412Z,79.29
2024-02-12T06:11:59.160Z,79.58
2024-02-12T06:12:31.498Z,80.40
2024-02-12T06:13:03.968Z,80.05
2024-02-12T06:13:36.005Z,79.69
2024-02-12T06:14:41.005Z,79.52
2024-02-12T06:15:13.065Z,79.70
2024-02-12T06:15:45.374Z,79.96
2024-02-12T06:16:18.038Z,79.87
2024-02-12T06:16:50.375Z,79.40
2024-02-12T06:17:22.456Z,79.86
2024-02-12T06:17:54.494Z,79.99
2024-02-12T06:18:27.045Z,80.04
2024-02-12T06:18:59.240Z,80.10
2024-02-12T06:19:31.201Z,79.87
2024-02-12T06:20:07.230Z,79.77
2024-02-12T06:20:39.145Z,78.90
2024-02-12T06:21:11.116Z,79.94
2024-02-12T06:21:46.921Z,79.34
2024-02-12T06:22:19.011Z,79.23
2024-02-12T06:22:50.957Z,80.15
2024-02-12T06:23:22.882Z,80.08
2024-02-12T06:23:54.734Z,79.76
2024-02-12T06:24:26.576Z,80.35
2024-02-12T06:24:58.462Z,80.15
2024-02-12T06:25:30.433Z,79.80
2024-02-12T06:26:02.569Z,79.63
2024-02-12T06:26:34.817Z,80.22
2024-02-12T06:27:06.965Z,80.04
2024-02-12T06:27:38.905Z,80.32
2024-02-12T06:28:10.811Z,80.89
2024-02-12T06:28:44.180Z,81.11
2024-02-12T06:29:16.029Z,81.18
2024-02-12T06:29:47.906Z,80.55
2024-02-12T06:30:20.443Z,80.17
2024-02-12T06:30:52.289Z,80.04
2024-02-12T06:31:24.183Z,80.67
2024-02-12T06:31:56.105Z,79.90
2024-02-12T06:32:28.056Z,79.46
2024-02-12T06:33:00.239Z,79.91
2024-02-12T06:33:32.348Z,79.89
2024-02-12T06:34:04.465Z,80.27
2024-02-12T06:34:36.401Z,79.73
2024-02-12T06:35:09.174Z,79.88
2024-02-12T06:35:41.096Z,79.89
2024-02-12T06:36:13.036Z,79.57
2024-02-12T06:36:44.894Z,79.73
2024-02-12T06:37:16.824Z,79.77
2024-02-12T06:37:48.679Z,79.50
2024-02-12T06:38:20.568Z,79.35
2024-02-12T06:38:52.501Z,79.30
2024-02-12T06:39:28.738Z,79.30
2024-02-12T06:40:00.660Z,80.17
2024-02-12T06:40:32.612Z,79.99
2024-02-12T06:41:04.582Z,79.83
2024-02-12T06:41:36.629Z,79.61
2024-02-12T06:42:08.502Z,78.98
2024-02-12T06:42:40.910Z,78.87
2024-02-12T06:43:13.118Z,78.92
2024-02-12T06:43:44.971Z,78.94
2024-02-12T06:44:17.234Z,78.66
2024-02-12T06:44:49.114Z,78.97
2024-02-12T06:45:21.077Z,79.37
2024-02-12T06:45:52.925Z,79.07
2024-02-12T06:46:25.033Z,79.03
2024-02-12T06:46:56.889Z,79.10
2024-02-12T06:47:30.566Z,79.02
2024-02-12T06:48:02.595Z,78.75
2024-02-12T06:48:34.970Z,78.56
2024-02-12T06:49:06.954Z,78.57
2024-02-12T06:49:38.795Z,78.61
2024-02-12T06:50:11.367Z,78.54
2024-02-12T06:50:43.942Z,78.84
2024-02-12T06:51:15.879Z,78.36
2024-02-12T06:51:48.812Z,78.71
2024-02-12T06:52:20.702Z,78.20
2024-02-12T06:52:53.987Z,78.04
2024-02-12T06:53:26.119Z,78.93
2024-02-12T06:53:57.986Z,78.60
2024-02-12T06:54:30.339Z,78.91
2024-02-12T06:55:02.200Z,78.80
2024-02-12T06:55:34.227Z,78.37
2024-02-12T06:56:06.833Z,78.97
2024-02-12T06:56:42.929Z,78.99
2024-02-12T06:57:15.827Z,79.11
2024-02-12T06:57:47.726Z,78.84
2024-02-12T06:58:19.603Z,78.65
2024-02-12T06:58:51.496Z,79.02
2024-02-12T06:59:23.479Z,79.35
2024-02-12T06:59:55.467Z,79.68
2024-02-12T07:00:27.533Z,78.78
2024-02-12T07:00:59.486Z,78.73
2024-02-12T07:01:31.381Z,78.94
2024-02-12T07:02:03.302Z,78.85
2024-02-12T07:02:37.148Z,78.87
2024-02-12T07:03:09.084Z,78.60
2024-02-12T07:03:41.772Z,78.61
2024-02-12T07:04:13.665Z,79.22
2024-02-12T07:04:45.724Z,79.24
2024-02-12T07:05:19.684Z,79.02
2024-02-12T07:05:52.280Z,78.98
2024-02-12T07:06:24.272Z,78.64
2024-02-12T07:06:56.278Z,79.03
2024-02-12T07:07:28.153Z,79.31
2024-02-12T07:08:00.256Z,79.23
2024-02-12T07:08:32.125Z,78.95
2024-02-12T07:09:04.205Z,78.75
2024-02-12T07:09:38.959Z,78.29